Time,TemperatureF,DewpointF,PressureIn,WindDirection,WindDirectionDegrees,WindSpeedMPH,WindSpeedGustMPH,Humidity,HourlyPrecipIn,Conditions,Clouds,dailyrainin,SoftwareType,DateUTC
2013-11-29 00:04:00,16.6,14.0,30.78,NNE,20,2.0,2.0,89,0.00,,,0.00,weatherlink.com 1.10,2013-11-29 05:04:00,
2013-11-29 00:19:00,16.6,14.0,30.78,NNW,332,0.0,2.0,89,0.00,,,0.00,weatherlink.com 1.10,2013-11-29 05:19:00,
2013-11-29 00:34:00,16.3,14.0,30.78,NW,305,0.0,1.0,90,0.00,,,0.00,weatherlink.com 1.10,2013-11-29 05:34:00,
2013-11-29 00:49:00,16.2,14.0,30.79,SW,236,0.0,1.0,90,0.00,,,0.00,weatherlink.com 1.10,2013-11-29 05:49:00,
2013-11-29 01:04:00,16.2,14.0,30.79,WSW,237,0.0,0.0,91,0.00,,,0.00,weatherlink.com 1.10,2013-11-29 06:04:00,
2013-11-29 01:19:00,16.2,14.0,30.79,SW,236,0.0,0.0,91,0.00,,,0.00,weatherlink.com 1.10,2013-11-29 06:19:00,
2013-11-29 01:34:00,16.4,14.0,30.79,SW,236,0.0,0.0,91,0.00,,,0.00,weatherlink.com 1.10,2013-11-29 06:34:00,
2013-11-29 01:49:00,16.3,14.0,30.79,SW,236,0.0,0.0,91,0.00,,,0.00,weatherlink.com 1.10,2013-11-29 06:49:00,
2013-11-29 02:04:00,16.3,14.0,30.80,SW,236,0.0,0.0,92,0.00,,,0.00,weatherlink.com 1.10,2013-11-29 07:04:00,
2013-11-29 02:20:00,16.2,14.0,30.80,SW,236,0.0,0.0,91,0.00,,,0.00,weatherlink.com 1.10,2013-11-29 07:20:00,
2013-11-29 02:35:00,16.1,14.0,30.80,SW,236,0.0,0.0,92,0.00,,,0.00,weatherlink.com 1.10,2013-11-29 07:35:00,
2013-11-29 02:50:00,15.9,14.0,30.80,SW,236,0.0,0.0,92,0.00,,,0.00,weatherlink.com 1.10,2013-11-29 07:50:00,
2013-11-29 03:05:00,15.9,14.0,30.80,SW,236,0.0,1.0,92,0.00,,,0.00,weatherlink.com 1.10,2013-11-29 08:05:00,
2013-11-29 03:20:00,16.2,14.0,30.80,NW,312,1.0,2.0,92,0.00,,,0.00,weatherlink.com 1.10,2013-11-29 08:20:00,
2013-11-29 03:35:00,16.3,14.0,30.80,NW,315,0.0,2.0,91,0.00,,,0.00,weatherlink.com 1.10,2013-11-29 08:35:00,
2013-11-29 03:50:00,16.0,14.0,30.80,NW,322,0.0,2.0,91,0.00,,,0.00,weatherlink.com 1.10,2013-11-29 08:50:00,
2013-11-29 04:05:00,16.0,14.0,30.80,NW,319,1.0,2.0,91,0.00,,,0.00,weatherlink.com 1.10,2013-11-29 09:05:00,
2013-11-29 04:20:00,16.0,14.0,30.81,NW,319,1.0,2.0,91,0.00,,,0.00,weatherlink.com 1.10,2013-11-29 09:20:00,
2013-11-29 04:35:00,16.0,14.0,30.81,NW,320,0.0,1.0,91,0.00,,,0.00,weatherlink.com 1.10,2013-11-29 09:35:00,
2013-11-29 04:50:00,15.9,14.0,30.81,NW,321,1.0,2.0,91,0.00,,,0.00,weatherlink.com 1.10,2013-11-29 09:50:00,
2013-11-29 05:05:00,16.0,14.0,30.81,NW,321,2.0,2.0,92,0.00,,,0.00,weatherlink.com 1.10,2013-11-29 10:05:00,
2013-11-29 05:20:00,16.0,14.0,30.82,NW,323,1.0,2.0,91,0.00,,,0.00,weatherlink.com 1.10,2013-11-29 10:20:00,
2013-11-29 05:35:00,16.0,14.0,30.82,NW,325,0.0,2.0,91,0.00,,,0.00,weatherlink.com 1.10,2013-11-29 10:35:00,
2013-11-29 05:50:00,16.0,14.0,30.82,NW,322,1.0,2.0,91,0.00,,,0.00,weatherlink.com 1.10,2013-11-29 10:50:00,
2013-11-29 06:05:00,15.8,14.0,30.83,NW,323,2.0,2.0,91,0.00,,,0.00,weatherlink.com 1.10,2013-11-29 11:05:00,
2013-11-29 06:20:00,15.5,13.0,30.84,NW,326,1.0,2.0,91,0.00,,,0.00,weatherlink.com 1.10,2013-11-29 11:20:00,
2013-11-29 06:35:00,15.0,13.0,30.84,NW,323,2.0,2.0,91,0.00,,,0.00,weatherlink.com 1.10,2013-11-29 11:35:00,
2013-11-29 06:50:00,14.3,12.0,30.85,NNW,329,2.0,3.0,91,0.00,,,0.00,weatherlink.com 1.10,2013-11-29 11:50:00,
2013-11-29 07:05:00,13.7,12.0,30.86,NW,326,2.0,3.0,91,0.00,,,0.00,weatherlink.com 1.10,2013-11-29 12:05:00,
2013-11-29 07:20:00,14.6,13.0,30.87,NW,322,1.0,2.0,92,0.00,,,0.00,weatherlink.com 1.10,2013-11-29 12:20:00,
2013-11-29 07:35:00,16.1,15.0,30.88,NNW,329,0.0,2.0,93,0.00,,,0.00,weatherlink.com 1.10,2013-11-29 12:35:00,
2013-11-29 07:50:00,17.6,16.0,30.89,SW,222,0.0,1.0,93,0.00,,,0.00,weatherlink.com 1.10,2013-11-29 12:50:00,
2013-11-29 08:05:00,18.1,16.0,30.90,SSW,212,0.0,1.0,91,0.00,,,0.00,weatherlink.com 1.10,2013-11-29 13:05:00,
2013-11-29 08:20:00,18.2,16.0,30.91,ESE,103,1.0,3.0,91,0.00,,,0.00,weatherlink.com 1.10,2013-11-29 13:20:00,
2013-11-29 08:35:00,18.2,16.0,30.92,SW,215,0.0,3.0,90,0.00,,,0.00,weatherlink.com 1.10,2013-11-29 13:35:00,
2013-11-29 08:50:00,18.1,16.0,30.92,SW,215,0.0,2.0,90,0.00,,,0.00,weatherlink.com 1.10,2013-11-29 13:50:00,
2013-11-29 09:05:00,17.9,16.0,30.93,SSW,210,1.0,3.0,90,0.00,,,0.00,weatherlink.com 1.10,2013-11-29 14:05:00,
2013-11-29 09:20:00,18.1,16.0,30.93,SW,221,0.0,2.0,90,0.00,,,0.00,weatherlink.com 1.10,2013-11-29 14:20:00,
2013-11-29 09:35:00,18.6,16.0,30.93,SW,217,1.0,2.0,90,0.00,,,0.00,weatherlink.com 1.10,2013-11-29 14:35:00,
2013-11-29 09:50:00,19.7,17.0,30.93,SW,221,0.0,2.0,89,0.00,,,0.00,weatherlink.com 1.10,2013-11-29 14:50:00,
2013-11-29 10:06:00,21.1,18.0,30.94,SW,229,0.0,1.0,87,0.00,,,0.00,weatherlink.com 1.10,2013-11-29 15:06:00,
2013-11-29 10:21:00,22.0,18.0,30.94,NW,312,2.0,3.0,85,0.00,,,0.00,weatherlink.com 1.10,2013-11-29 15:21:00,
2013-11-29 10:36:00,21.7,18.0,30.94,NW,308,2.0,2.0,84,0.00,,,0.00,weatherlink.com 1.10,2013-11-29 15:36:00,
2013-11-29 10:51:00,22.4,18.0,30.94,SE,131,1.0,3.0,82,0.00,,,0.00,weatherlink.com 1.10,2013-11-29 15:51:00,
2013-11-29 11:06:00,22.3,17.0,30.93,SSW,210,1.0,3.0,81,0.00,,,0.00,weatherlink.com 1.10,2013-11-29 16:06:00,
2013-11-29 11:21:00,22.9,18.0,30.93,NE,43,0.0,3.0,81,0.00,,,0.00,weatherlink.com 1.10,2013-11-29 16:21:00,
2013-11-29 11:36:00,23.9,18.0,30.93,SW,221,3.0,5.0,79,0.00,,,0.00,weatherlink.com 1.10,2013-11-29 16:36:00,
2013-11-29 11:52:00,24.4,18.0,30.93,SSW,210,0.0,3.0,77,0.00,,,0.00,weatherlink.com 1.10,2013-11-29 16:52:00,
2013-11-29 12:06:00,24.4,18.0,30.93,SE,124,1.0,4.0,76,0.00,,,0.00,weatherlink.com 1.10,2013-11-29 17:06:00,
2013-11-29 12:21:00,23.8,18.0,30.93,SW,217,0.0,5.0,77,0.00,,,0.00,weatherlink.com 1.10,2013-11-29 17:21:00,
2013-11-29 12:36:00,24.0,18.0,30.93,SW,220,3.0,5.0,77,0.00,,,0.00,weatherlink.com 1.10,2013-11-29 17:36:00,
2013-11-29 12:51:00,23.5,17.0,30.94,South,170,1.0,3.0,77,0.00,,,0.00,weatherlink.com 1.10,2013-11-29 17:51:00,
2013-11-29 13:06:00,23.1,17.0,30.94,ESE,107,2.0,5.0,77,0.00,,,0.00,weatherlink.com 1.10,2013-11-29 18:06:00,
2013-11-29 13:21:00,22.7,17.0,30.94,SE,128,1.0,7.0,77,0.00,,,0.00,weatherlink.com 1.10,2013-11-29 18:21:00,
2013-11-29 13:36:00,22.9,16.0,30.94,SE,132,3.0,4.0,76,0.00,,,0.00,weatherlink.com 1.10,2013-11-29 18:36:00,
2013-11-29 13:51:00,25.3,17.0,30.94,SE,133,4.0,6.0,71,0.00,,,0.00,weatherlink.com 1.10,2013-11-29 18:51:00,
2013-11-29 14:06:00,24.7,15.0,30.94,SE,143,1.0,6.0,68,0.00,,,0.00,weatherlink.com 1.10,2013-11-29 19:06:00,
2013-11-29 14:21:00,24.8,16.0,30.94,SE,139,0.0,5.0,70,0.00,,,0.00,weatherlink.com 1.10,2013-11-29 19:21:00,
2013-11-29 14:36:00,24.5,15.0,30.94,East,89,3.0,8.0,67,0.00,,,0.00,weatherlink.com 1.10,2013-11-29 19:36:00,
2013-11-29 14:51:00,24.7,14.0,30.95,SW,221,2.0,8.0,65,0.00,,,0.00,weatherlink.com 1.10,2013-11-29 19:51:00,
2013-11-29 15:06:00,24.1,15.0,30.95,SSE,166,4.0,10.0,67,0.00,,,0.00,weatherlink.com 1.10,2013-11-29 20:06:00,
2013-11-29 15:22:00,23.6,15.0,30.96,SW,224,0.0,5.0,71,0.00,,,0.00,weatherlink.com 1.10,2013-11-29 20:22:00,
2013-11-29 15:36:00,22.9,14.0,30.97,SSE,151,1.0,7.0,70,0.00,,,0.00,weatherlink.com 1.10,2013-11-29 20:36:00,
2013-11-29 15:51:00,22.9,15.0,30.97,East,79,2.0,5.0,71,0.00,,,0.00,weatherlink.com 1.10,2013-11-29 20:51:00,
2013-11-29 16:06:00,22.5,14.0,30.98,SE,127,0.0,5.0,70,0.00,,,0.00,weatherlink.com 1.10,2013-11-29 21:06:00,
2013-11-29 16:21:00,21.6,13.0,30.98,SW,219,1.0,5.0,70,0.00,,,0.00,weatherlink.com 1.10,2013-11-29 21:21:00,
2013-11-29 16:36:00,20.5,13.0,30.99,SSE,163,4.0,4.0,72,0.00,,,0.00,weatherlink.com 1.10,2013-11-29 21:36:00,
2013-11-29 17:06:00,18.7,11.0,31.00,SW,222,5.0,5.0,73,0.00,,,0.00,weatherlink.com 1.10,2013-11-29 22:06:00,
2013-11-29 17:21:00,17.3,11.0,31.01,NW,321,1.0,2.0,76,0.00,,,0.00,weatherlink.com 1.10,2013-11-29 22:21:00,
2013-11-29 17:36:00,16.0,11.0,31.01,NW,322,0.0,1.0,80,0.00,,,0.00,weatherlink.com 1.10,2013-11-29 22:36:00,
2013-11-29 17:51:00,15.4,11.0,31.02,NW,326,0.0,2.0,82,0.00,,,0.00,weatherlink.com 1.10,2013-11-29 22:51:00,
2013-11-29 18:06:00,14.7,10.0,31.02,NNW,328,1.0,2.0,83,0.00,,,0.00,weatherlink.com 1.10,2013-11-29 23:06:00,
2013-11-29 18:21:00,14.7,11.0,31.03,NW,325,0.0,2.0,84,0.00,,,0.00,weatherlink.com 1.10,2013-11-29 23:21:00,
2013-11-29 18:36:00,14.5,10.0,31.04,NW,321,2.0,2.0,83,0.00,,,0.00,weatherlink.com 1.10,2013-11-29 23:36:00,
2013-11-29 18:51:00,14.0,10.0,31.04,NW,323,1.0,3.0,84,0.00,,,0.00,weatherlink.com 1.10,2013-11-29 23:51:00,
2013-11-29 19:07:00,14.3,10.0,31.05,WNW,297,1.0,3.0,83,0.00,,,0.00,weatherlink.com 1.10,2013-11-30 00:07:00,
2013-11-29 19:22:00,14.0,10.0,31.05,SW,228,1.0,2.0,82,0.00,,,0.00,weatherlink.com 1.10,2013-11-30 00:22:00,
2013-11-29 19:37:00,13.9,9.0,31.06,NW,319,2.0,3.0,81,0.00,,,0.00,weatherlink.com 1.10,2013-11-30 00:37:00,
2013-11-29 19:52:00,12.7,9.0,31.06,NW,326,1.0,3.0,83,0.00,,,0.00,weatherlink.com 1.10,2013-11-30 00:52:00,
2013-11-29 20:07:00,12.1,8.0,31.06,NNW,330,2.0,4.0,84,0.00,,,0.00,weatherlink.com 1.10,2013-11-30 01:07:00,
2013-11-29 20:22:00,12.0,8.0,31.06,NW,321,2.0,3.0,84,0.00,,,0.00,weatherlink.com 1.10,2013-11-30 01:22:00,
2013-11-29 20:37:00,12.2,8.0,31.07,NNW,332,2.0,4.0,83,0.00,,,0.00,weatherlink.com 1.10,2013-11-30 01:37:00,
2013-11-29 20:52:00,11.9,8.0,31.07,NW,324,1.0,3.0,84,0.00,,,0.00,weatherlink.com 1.10,2013-11-30 01:52:00,
2013-11-29 21:07:00,11.5,8.0,31.07,SSE,153,1.0,3.0,85,0.00,,,0.00,weatherlink.com 1.10,2013-11-30 02:07:00,
2013-11-29 21:22:00,11.1,8.0,31.07,WSW,240,0.0,4.0,86,0.00,,,0.00,weatherlink.com 1.10,2013-11-30 02:22:00,
2013-11-29 21:37:00,11.2,8.0,31.08,NW,323,0.0,3.0,85,0.00,,,0.00,weatherlink.com 1.10,2013-11-30 02:37:00,
2013-11-29 21:52:00,11.0,7.0,31.07,NW,319,1.0,4.0,85,0.00,,,0.00,weatherlink.com 1.10,2013-11-30 02:52:00,
2013-11-29 22:07:00,11.1,8.0,31.07,North,1,1.0,4.0,86,0.00,,,0.00,weatherlink.com 1.10,2013-11-30 03:07:00,
2013-11-29 22:22:00,10.9,7.0,31.08,NW,326,1.0,2.0,83,0.00,,,0.00,weatherlink.com 1.10,2013-11-30 03:22:00,
2013-11-29 22:37:00,10.3,7.0,31.08,NW,324,1.0,4.0,85,0.00,,,0.00,weatherlink.com 1.10,2013-11-30 03:37:00,
2013-11-29 22:52:00,10.2,7.0,31.08,WNW,283,1.0,5.0,86,0.00,,,0.00,weatherlink.com 1.10,2013-11-30 03:52:00,
2013-11-29 23:07:00,10.0,6.0,31.09,NW,326,3.0,3.0,85,0.00,,,0.00,weatherlink.com 1.10,2013-11-30 04:07:00,
2013-11-29 23:22:00,9.5,6.0,31.08,NNW,340,2.0,3.0,86,0.00,,,0.00,weatherlink.com 1.10,2013-11-30 04:22:00,
2013-11-29 23:37:00,9.1,6.0,31.08,NNW,330,2.0,3.0,86,0.00,,,0.00,weatherlink.com 1.10,2013-11-30 04:37:00,
2013-11-29 23:52:00,9.1,6.0,31.08,NW,326,3.0,4.0,87,0.00,,,0.00,weatherlink.com 1.10,2013-11-30 04:52:00,